sensor_id;sensor_type;location;lat;lon;timestamp;P1;durP1;ratioP1;P2;durP2;ratioP2
37311;SDS011;23197;53.912;9.138;2022-07-21T00:01:26;15.30;;;9.05;;
37311;SDS011;23197;53.912;9.138;2022-07-21T00:03:51;15.85;;;9.30;;
37311;SDS011;23197;53.912;9.138;2022-07-21T00:06:17;16.40;;;9.38;;
37311;SDS011;23197;53.912;9.138;2022-07-21T00:08:43;15.00;;;9.35;;
37311;SDS011;23197;53.912;9.138;2022-07-21T00:11:09;14.52;;;9.50;;
37311;SDS011;23197;53.912;9.138;2022-07-21T00:13:35;16.95;;;9.80;;
37311;SDS011;23197;53.912;9.138;2022-07-21T00:16:01;16.83;;;9.45;;
37311;SDS011;23197;53.912;9.138;2022-07-21T00:18:27;15.55;;;9.65;;
37311;SDS011;23197;53.912;9.138;2022-07-21T00:20:56;14.02;;;9.80;;
37311;SDS011;23197;53.912;9.138;2022-07-21T00:23:24;14.82;;;9.25;;
37311;SDS011;23197;53.912;9.138;2022-07-21T00:25:51;16.65;;;10.32;;
37311;SDS011;23197;53.912;9.138;2022-07-21T00:28:17;15.82;;;9.77;;
37311;SDS011;23197;53.912;9.138;2022-07-21T00:30:43;15.82;;;10.00;;
37311;SDS011;23197;53.912;9.138;2022-07-21T00:33:10;17.70;;;9.70;;
37311;SDS011;23197;53.912;9.138;2022-07-21T00:35:36;15.90;;;10.63;;
37311;SDS011;23197;53.912;9.138;2022-07-21T00:38:02;17.30;;;11.27;;
37311;SDS011;23197;53.912;9.138;2022-07-21T00:40:27;15.80;;;9.98;;
37311;SDS011;23197;53.912;9.138;2022-07-21T00:42:53;19.58;;;11.35;;
37311;SDS011;23197;53.912;9.138;2022-07-21T00:45:19;14.60;;;10.18;;
37311;SDS011;23197;53.912;9.138;2022-07-21T00:47:44;17.88;;;10.95;;
37311;SDS011;23197;53.912;9.138;2022-07-21T00:50:12;18.83;;;11.18;;
37311;SDS011;23197;53.912;9.138;2022-07-21T00:52:39;18.45;;;10.57;;
37311;SDS011;23197;53.912;9.138;2022-07-21T00:55:05;13.90;;;9.20;;
37311;SDS011;23197;53.912;9.138;2022-07-21T00:57:34;16.45;;;9.80;;
37311;SDS011;23197;53.912;9.138;2022-07-21T01:00:00;15.57;;;10.23;;
37311;SDS011;23197;53.912;9.138;2022-07-21T01:02:28;16.52;;;10.52;;
37311;SDS011;23197;53.912;9.138;2022-07-21T01:04:57;15.88;;;10.27;;
37311;SDS011;23197;53.912;9.138;2022-07-21T01:07:22;17.05;;;10.20;;
37311;SDS011;23197;53.912;9.138;2022-07-21T01:09:48;16.55;;;10.45;;
37311;SDS011;23197;53.912;9.138;2022-07-21T01:12:14;19.50;;;10.80;;
37311;SDS011;23197;53.912;9.138;2022-07-21T01:14:40;17.48;;;10.48;;
37311;SDS011;23197;53.912;9.138;2022-07-21T01:17:06;18.50;;;10.60;;
37311;SDS011;23197;53.912;9.138;2022-07-21T01:19:32;18.55;;;10.85;;
37311;SDS011;23197;53.912;9.138;2022-07-21T01:21:58;19.95;;;10.65;;
37311;SDS011;23197;53.912;9.138;2022-07-21T01:24:24;19.95;;;11.48;;
37311;SDS011;23197;53.912;9.138;2022-07-21T01:26:50;17.40;;;11.10;;
37311;SDS011;23197;53.912;9.138;2022-07-21T01:29:17;17.55;;;10.18;;
37311;SDS011;23197;53.912;9.138;2022-07-21T01:31:44;19.83;;;11.48;;
37311;SDS011;23197;53.912;9.138;2022-07-21T01:34:12;18.42;;;10.57;;
37311;SDS011;23197;53.912;9.138;2022-07-21T01:36:38;19.50;;;11.93;;
37311;SDS011;23197;53.912;9.138;2022-07-21T01:39:05;17.60;;;11.02;;
37311;SDS011;23197;53.912;9.138;2022-07-21T01:41:50;17.42;;;10.52;;
37311;SDS011;23197;53.912;9.138;2022-07-21T01:44:16;18.30;;;11.45;;
37311;SDS011;23197;53.912;9.138;2022-07-21T01:46:43;19.58;;;11.38;;
37311;SDS011;23197;53.912;9.138;2022-07-21T01:49:12;20.65;;;11.82;;
37311;SDS011;23197;53.912;9.138;2022-07-21T01:51:38;20.40;;;12.48;;
37311;SDS011;23197;53.912;9.138;2022-07-21T01:54:04;19.48;;;12.80;;
37311;SDS011;23197;53.912;9.138;2022-07-21T01:56:32;22.80;;;12.07;;
37311;SDS011;23197;53.912;9.138;2022-07-21T01:58:58;21.63;;;12.10;;
37311;SDS011;23197;53.912;9.138;2022-07-21T02:01:24;20.70;;;11.85;;
37311;SDS011;23197;53.912;9.138;2022-07-21T02:03:52;19.98;;;11.27;;
37311;SDS011;23197;53.912;9.138;2022-07-21T02:06:18;22.25;;;10.80;;
37311;SDS011;23197;53.912;9.138;2022-07-21T02:08:47;15.55;;;9.45;;
37311;SDS011;23197;53.912;9.138;2022-07-21T02:11:13;19.35;;;9.82;;
37311;SDS011;23197;53.912;9.138;2022-07-21T02:13:39;15.25;;;8.07;;
37311;SDS011;23197;53.912;9.138;2022-07-21T02:16:05;16.85;;;8.73;;
37311;SDS011;23197;53.912;9.138;2022-07-21T02:18:31;15.20;;;7.90;;
37311;SDS011;23197;53.912;9.138;2022-07-21T02:20:56;12.88;;;7.35;;
37311;SDS011;23197;53.912;9.138;2022-07-21T02:23:23;13.23;;;7.28;;
37311;SDS011;23197;53.912;9.138;2022-07-21T02:25:49;13.68;;;7.20;;
37311;SDS011;23197;53.912;9.138;2022-07-21T02:28:17;13.43;;;6.30;;
37311;SDS011;23197;53.912;9.138;2022-07-21T02:30:43;12.38;;;5.78;;
37311;SDS011;23197;53.912;9.138;2022-07-21T02:33:10;10.93;;;5.93;;
37311;SDS011;23197;53.912;9.138;2022-07-21T02:35:36;12.27;;;6.03;;
37311;SDS011;23197;53.912;9.138;2022-07-21T02:38:01;13.70;;;5.70;;
37311;SDS011;23197;53.912;9.138;2022-07-21T02:40:27;12.65;;;5.82;;
37311;SDS011;23197;53.912;9.138;2022-07-21T02:42:53;13.13;;;6.35;;
37311;SDS011;23197;53.912;9.138;2022-07-21T02:45:18;12.07;;;5.63;;
37311;SDS011;23197;53.912;9.138;2022-07-21T02:47:51;15.73;;;5.50;;
37311;SDS011;23197;53.912;9.138;2022-07-21T02:50:18;9.35;;;5.53;;
37311;SDS011;23197;53.912;9.138;2022-07-21T02:52:45;12.07;;;5.22;;
37311;SDS011;23197;53.912;9.138;2022-07-21T02:55:10;11.43;;;5.32;;
37311;SDS011;23197;53.912;9.138;2022-07-21T02:57:36;12.45;;;5.32;;
37311;SDS011;23197;53.912;9.138;2022-07-21T03:00:03;8.95;;;5.22;;
37311;SDS011;23197;53.912;9.138;2022-07-21T03:02:31;12.75;;;5.80;;
37311;SDS011;23197;53.912;9.138;2022-07-21T03:04:56;11.13;;;5.22;;
37311;SDS011;23197;53.912;9.138;2022-07-21T03:07:22;11.95;;;5.45;;
37311;SDS011;23197;53.912;9.138;2022-07-21T03:09:47;13.68;;;5.53;;
37311;SDS011;23197;53.912;9.138;2022-07-21T03:12:13;11.70;;;5.45;;
37311;SDS011;23197;53.912;9.138;2022-07-21T03:14:38;12.27;;;5.50;;
37311;SDS011;23197;53.912;9.138;2022-07-21T03:17:04;9.50;;;5.15;;
37311;SDS011;23197;53.912;9.138;2022-07-21T03:19:29;8.60;;;5.28;;
37311;SDS011;23197;53.912;9.138;2022-07-21T03:21:55;13.88;;;6.03;;
37311;SDS011;23197;53.912;9.138;2022-07-21T03:24:20;13.32;;;5.93;;
37311;SDS011;23197;53.912;9.138;2022-07-21T03:26:46;14.68;;;6.00;;
37311;SDS011;23197;53.912;9.138;2022-07-21T03:29:11;11.75;;;6.15;;
37311;SDS011;23197;53.912;9.138;2022-07-21T03:31:37;11.15;;;5.55;;
37311;SDS011;23197;53.912;9.138;2022-07-21T03:34:03;15.35;;;6.10;;
37311;SDS011;23197;53.912;9.138;2022-07-21T03:36:28;12.07;;;5.47;;
37311;SDS011;23197;53.912;9.138;2022-07-21T03:38:54;13.48;;;6.45;;
37311;SDS011;23197;53.912;9.138;2022-07-21T03:41:19;12.15;;;5.75;;
37311;SDS011;23197;53.912;9.138;2022-07-21T03:43:45;13.35;;;6.03;;
37311;SDS011;23197;53.912;9.138;2022-07-21T03:46:10;10.70;;;5.57;;
37311;SDS011;23197;53.912;9.138;2022-07-21T03:48:36;13.45;;;6.28;;
37311;SDS011;23197;53.912;9.138;2022-07-21T03:51:01;12.30;;;6.13;;
37311;SDS011;23197;53.912;9.138;2022-07-21T03:53:27;13.57;;;7.00;;
37311;SDS011;23197;53.912;9.138;2022-07-21T03:55:55;11.77;;;6.47;;
37311;SDS011;23197;53.912;9.138;2022-07-21T03:58:21;11.30;;;6.30;;
37311;SDS011;23197;53.912;9.138;2022-07-21T04:00:46;11.80;;;5.82;;
37311;SDS011;23197;53.912;9.138;2022-07-21T04:03:12;15.95;;;6.30;;
37311;SDS011;23197;53.912;9.138;2022-07-21T04:05:39;11.05;;;5.72;;
37311;SDS011;23197;53.912;9.138;2022-07-21T04:08:06;9.88;;;5.70;;
37311;SDS011;23197;53.912;9.138;2022-07-21T04:10:33;11.43;;;5.75;;
37311;SDS011;23197;53.912;9.138;2022-07-21T04:13:01;12.50;;;5.22;;
37311;SDS011;23197;53.912;9.138;2022-07-21T04:15:28;8.82;;;5.35;;
37311;SDS011;23197;53.912;9.138;2022-07-21T04:17:54;14.68;;;6.13;;
37311;SDS011;23197;53.912;9.138;2022-07-21T04:20:19;14.38;;;5.72;;
37311;SDS011;23197;53.912;9.138;2022-07-21T04:22:46;10.45;;;5.45;;
37311;SDS011;23197;53.912;9.138;2022-07-21T04:25:13;12.48;;;6.20;;
37311;SDS011;23197;53.912;9.138;2022-07-21T04:27:39;13.52;;;6.05;;
37311;SDS011;23197;53.912;9.138;2022-07-21T04:30:06;12.10;;;6.03;;
37311;SDS011;23197;53.912;9.138;2022-07-21T04:32:34;13.98;;;6.60;;
37311;SDS011;23197;53.912;9.138;2022-07-21T04:35:00;12.98;;;6.93;;
37311;SDS011;23197;53.912;9.138;2022-07-21T04:37:25;11.82;;;6.25;;
37311;SDS011;23197;53.912;9.138;2022-07-21T04:39:52;12.40;;;6.30;;
37311;SDS011;23197;53.912;9.138;2022-07-21T04:42:17;11.25;;;5.90;;
37311;SDS011;23197;53.912;9.138;2022-07-21T04:44:43;11.38;;;5.50;;
37311;SDS011;23197;53.912;9.138;2022-07-21T04:47:08;11.82;;;6.07;;
37311;SDS011;23197;53.912;9.138;2022-07-21T04:49:34;11.90;;;6.32;;
37311;SDS011;23197;53.912;9.138;2022-07-21T04:51:59;13.18;;;5.82;;
37311;SDS011;23197;53.912;9.138;2022-07-21T04:54:25;15.50;;;6.43;;
37311;SDS011;23197;53.912;9.138;2022-07-21T04:56:51;13.00;;;6.55;;
37311;SDS011;23197;53.912;9.138;2022-07-21T04:59:16;11.38;;;6.45;;
37311;SDS011;23197;53.912;9.138;2022-07-21T05:01:42;18.60;;;6.90;;
37311;SDS011;23197;53.912;9.138;2022-07-21T05:04:08;14.48;;;6.85;;
37311;SDS011;23197;53.912;9.138;2022-07-21T05:06:34;13.32;;;6.78;;
37311;SDS011;23197;53.912;9.138;2022-07-21T05:08:59;12.15;;;6.35;;
37311;SDS011;23197;53.912;9.138;2022-07-21T05:11:25;13.10;;;6.78;;
37311;SDS011;23197;53.912;9.138;2022-07-21T05:13:51;14.85;;;6.57;;
37311;SDS011;23197;53.912;9.138;2022-07-21T05:16:17;15.15;;;7.10;;
37311;SDS011;23197;53.912;9.138;2022-07-21T05:18:43;15.90;;;7.47;;
37311;SDS011;23197;53.912;9.138;2022-07-21T05:21:08;13.95;;;7.50;;
37311;SDS011;23197;53.912;9.138;2022-07-21T05:23:34;12.35;;;6.53;;
37311;SDS011;23197;53.912;9.138;2022-07-21T05:25:59;12.85;;;7.15;;
37311;SDS011;23197;53.912;9.138;2022-07-21T05:28:27;13.80;;;6.78;;
37311;SDS011;23197;53.912;9.138;2022-07-21T05:30:53;11.82;;;6.90;;
37311;SDS011;23197;53.912;9.138;2022-07-21T05:33:19;12.30;;;7.35;;
37311;SDS011;23197;53.912;9.138;2022-07-21T05:35:45;11.93;;;6.75;;
37311;SDS011;23197;53.912;9.138;2022-07-21T05:38:10;11.77;;;6.80;;
37311;SDS011;23197;53.912;9.138;2022-07-21T05:40:36;14.65;;;8.10;;
37311;SDS011;23197;53.912;9.138;2022-07-21T05:43:01;17.00;;;8.90;;
37311;SDS011;23197;53.912;9.138;2022-07-21T05:45:27;14.82;;;8.90;;
37311;SDS011;23197;53.912;9.138;2022-07-21T05:47:52;14.98;;;9.20;;
37311;SDS011;23197;53.912;9.138;2022-07-21T05:50:18;18.83;;;9.35;;
37311;SDS011;23197;53.912;9.138;2022-07-21T05:52:44;12.63;;;7.97;;
37311;SDS011;23197;53.912;9.138;2022-07-21T05:55:09;15.52;;;9.60;;
37311;SDS011;23197;53.912;9.138;2022-07-21T05:57:36;15.52;;;9.27;;
37311;SDS011;23197;53.912;9.138;2022-07-21T06:00:02;15.50;;;8.98;;
37311;SDS011;23197;53.912;9.138;2022-07-21T06:02:33;15.15;;;8.50;;
37311;SDS011;23197;53.912;9.138;2022-07-21T06:04:59;16.58;;;9.05;;
37311;SDS011;23197;53.912;9.138;2022-07-21T06:07:25;17.40;;;8.85;;
37311;SDS011;23197;53.912;9.138;2022-07-21T06:09:51;13.30;;;8.48;;
37311;SDS011;23197;53.912;9.138;2022-07-21T06:12:16;15.73;;;9.13;;
37311;SDS011;23197;53.912;9.138;2022-07-21T06:14:42;15.27;;;9.50;;
37311;SDS011;23197;53.912;9.138;2022-07-21T06:17:07;16.02;;;9.13;;
37311;SDS011;23197;53.912;9.138;2022-07-21T06:19:33;19.55;;;11.18;;
37311;SDS011;23197;53.912;9.138;2022-07-21T06:22:00;17.17;;;10.85;;
37311;SDS011;23197;53.912;9.138;2022-07-21T06:24:27;19.50;;;11.50;;
37311;SDS011;23197;53.912;9.138;2022-07-21T06:26:53;20.45;;;10.50;;
37311;SDS011;23197;53.912;9.138;2022-07-21T06:29:22;16.02;;;10.00;;
37311;SDS011;23197;53.912;9.138;2022-07-21T06:31:48;16.27;;;9.68;;
37311;SDS011;23197;53.912;9.138;2022-07-21T06:34:13;16.27;;;10.40;;
37311;SDS011;23197;53.912;9.138;2022-07-21T06:36:39;17.38;;;10.82;;
37311;SDS011;23197;53.912;9.138;2022-07-21T06:39:05;17.13;;;11.10;;
37311;SDS011;23197;53.912;9.138;2022-07-21T06:41:30;20.75;;;11.52;;
37311;SDS011;23197;53.912;9.138;2022-07-21T06:43:56;18.02;;;11.77;;
37311;SDS011;23197;53.912;9.138;2022-07-21T06:46:22;17.85;;;11.60;;
37311;SDS011;23197;53.912;9.138;2022-07-21T06:48:47;15.75;;;11.90;;
37311;SDS011;23197;53.912;9.138;2022-07-21T06:51:13;22.70;;;12.43;;
37311;SDS011;23197;53.912;9.138;2022-07-21T06:53:38;19.63;;;11.65;;
37311;SDS011;23197;53.912;9.138;2022-07-21T06:56:04;14.95;;;11.35;;
37311;SDS011;23197;53.912;9.138;2022-07-21T06:58:30;15.38;;;11.18;;
37311;SDS011;23197;53.912;9.138;2022-07-21T07:00:57;15.48;;;11.60;;
37311;SDS011;23197;53.912;9.138;2022-07-21T07:03:23;16.73;;;11.02;;
37311;SDS011;23197;53.912;9.138;2022-07-21T07:05:49;17.65;;;11.27;;
37311;SDS011;23197;53.912;9.138;2022-07-21T07:08:15;18.55;;;11.75;;
37311;SDS011;23197;53.912;9.138;2022-07-21T07:10:41;18.77;;;11.55;;
37311;SDS011;23197;53.912;9.138;2022-07-21T07:13:07;13.80;;;10.05;;
37311;SDS011;23197;53.912;9.138;2022-07-21T07:15:34;18.27;;;11.27;;
37311;SDS011;23197;53.912;9.138;2022-07-21T07:17:59;15.95;;;10.38;;
37311;SDS011;23197;53.912;9.138;2022-07-21T07:20:25;18.27;;;11.20;;
37311;SDS011;23197;53.912;9.138;2022-07-21T07:22:50;17.45;;;10.88;;
37311;SDS011;23197;53.912;9.138;2022-07-21T07:25:16;17.90;;;11.02;;
37311;SDS011;23197;53.912;9.138;2022-07-21T07:27:43;15.70;;;11.10;;
37311;SDS011;23197;53.912;9.138;2022-07-21T07:30:09;18.38;;;11.00;;
37311;SDS011;23197;53.912;9.138;2022-07-21T07:32:35;18.60;;;11.05;;
37311;SDS011;23197;53.912;9.138;2022-07-21T07:35:01;21.45;;;12.10;;
37311;SDS011;23197;53.912;9.138;2022-07-21T07:37:26;19.17;;;11.27;;
37311;SDS011;23197;53.912;9.138;2022-07-21T07:39:52;17.45;;;11.32;;
37311;SDS011;23197;53.912;9.138;2022-07-21T07:42:17;17.92;;;11.00;;
37311;SDS011;23197;53.912;9.138;2022-07-21T07:44:43;16.60;;;11.15;;
37311;SDS011;23197;53.912;9.138;2022-07-21T07:47:08;15.68;;;11.50;;
37311;SDS011;23197;53.912;9.138;2022-07-21T07:49:34;19.80;;;11.73;;
37311;SDS011;23197;53.912;9.138;2022-07-21T07:51:59;18.45;;;11.57;;
37311;SDS011;23197;53.912;9.138;2022-07-21T07:54:27;19.42;;;10.48;;
37311;SDS011;23197;53.912;9.138;2022-07-21T07:56:53;17.80;;;11.98;;
37311;SDS011;23197;53.912;9.138;2022-07-21T07:59:18;17.13;;;10.45;;
37311;SDS011;23197;53.912;9.138;2022-07-21T08:01:44;17.15;;;10.90;;
37311;SDS011;23197;53.912;9.138;2022-07-21T08:04:10;16.52;;;10.60;;
37311;SDS011;23197;53.912;9.138;2022-07-21T08:06:35;18.17;;;10.75;;
37311;SDS011;23197;53.912;9.138;2022-07-21T08:09:00;21.05;;;11.88;;
37311;SDS011;23197;53.912;9.138;2022-07-21T08:11:26;21.75;;;12.15;;
37311;SDS011;23197;53.912;9.138;2022-07-21T08:13:52;24.67;;;13.00;;
37311;SDS011;23197;53.912;9.138;2022-07-21T08:16:17;18.75;;;11.68;;
37311;SDS011;23197;53.912;9.138;2022-07-21T08:18:43;20.80;;;11.57;;
37311;SDS011;23197;53.912;9.138;2022-07-21T08:21:09;19.95;;;12.93;;
37311;SDS011;23197;53.912;9.138;2022-07-21T08:23:35;22.70;;;13.50;;
37311;SDS011;23197;53.912;9.138;2022-07-21T08:26:01;18.92;;;12.63;;
37311;SDS011;23197;53.912;9.138;2022-07-21T08:28:27;20.63;;;13.73;;
37311;SDS011;23197;53.912;9.138;2022-07-21T08:30:53;25.80;;;13.48;;
37311;SDS011;23197;53.912;9.138;2022-07-21T08:33:19;22.00;;;14.88;;
37311;SDS011;23197;53.912;9.138;2022-07-21T08:35:44;22.88;;;14.10;;
37311;SDS011;23197;53.912;9.138;2022-07-21T08:38:10;24.10;;;15.20;;
37311;SDS011;23197;53.912;9.138;2022-07-21T08:40:40;23.77;;;14.98;;
37311;SDS011;23197;53.912;9.138;2022-07-21T08:43:07;21.02;;;15.13;;
37311;SDS011;23197;53.912;9.138;2022-07-21T08:45:35;21.20;;;14.73;;
37311;SDS011;23197;53.912;9.138;2022-07-21T08:48:01;21.30;;;13.90;;
37311;SDS011;23197;53.912;9.138;2022-07-21T08:50:29;19.67;;;13.00;;
37311;SDS011;23197;53.912;9.138;2022-07-21T08:52:57;16.70;;;12.20;;
37311;SDS011;23197;53.912;9.138;2022-07-21T08:55:22;14.55;;;10.55;;
37311;SDS011;23197;53.912;9.138;2022-07-21T08:57:48;19.40;;;10.02;;
37311;SDS011;23197;53.912;9.138;2022-07-21T09:00:14;12.70;;;9.30;;
37311;SDS011;23197;53.912;9.138;2022-07-21T09:02:40;13.68;;;9.00;;
37311;SDS011;23197;53.912;9.138;2022-07-21T09:05:06;14.05;;;9.50;;
37311;SDS011;23197;53.912;9.138;2022-07-21T09:10:25;11.88;;;8.23;;
37311;SDS011;23197;53.912;9.138;2022-07-21T09:12:54;13.07;;;8.38;;
37311;SDS011;23197;53.912;9.138;2022-07-21T09:15:22;13.30;;;8.30;;
37311;SDS011;23197;53.912;9.138;2022-07-21T09:18:03;11.65;;;7.95;;
37311;SDS011;23197;53.912;9.138;2022-07-21T09:20:32;16.88;;;9.65;;
37311;SDS011;23197;53.912;9.138;2022-07-21T09:23:11;13.95;;;9.10;;
37311;SDS011;23197;53.912;9.138;2022-07-21T09:25:39;14.68;;;9.82;;
37311;SDS011;23197;53.912;9.138;2022-07-21T09:28:15;15.38;;;9.75;;
37311;SDS011;23197;53.912;9.138;2022-07-21T09:33:42;15.40;;;9.88;;
37311;SDS011;23197;53.912;9.138;2022-07-21T09:38:35;14.93;;;9.82;;
37311;SDS011;23197;53.912;9.138;2022-07-21T09:41:10;17.08;;;9.50;;
37311;SDS011;23197;53.912;9.138;2022-07-21T09:43:39;16.35;;;9.85;;
37311;SDS011;23197;53.912;9.138;2022-07-21T09:46:11;14.00;;;9.25;;
37311;SDS011;23197;53.912;9.138;2022-07-21T09:48:40;14.98;;;10.52;;
37311;SDS011;23197;53.912;9.138;2022-07-21T09:51:21;13.65;;;9.65;;
37311;SDS011;23197;53.912;9.138;2022-07-21T09:56:30;13.82;;;9.32;;
37311;SDS011;23197;53.912;9.138;2022-07-21T09:58:58;12.52;;;8.48;;
37311;SDS011;23197;53.912;9.138;2022-07-21T10:01:25;11.38;;;8.20;;
37311;SDS011;23197;53.912;9.138;2022-07-21T10:03:52;11.85;;;8.38;;
37311;SDS011;23197;53.912;9.138;2022-07-21T10:06:19;11.82;;;9.27;;
37311;SDS011;23197;53.912;9.138;2022-07-21T10:08:47;11.27;;;8.82;;
37311;SDS011;23197;53.912;9.138;2022-07-21T10:11:14;12.43;;;9.30;;
37311;SDS011;23197;53.912;9.138;2022-07-21T10:13:39;13.90;;;10.57;;
37311;SDS011;23197;53.912;9.138;2022-07-21T10:16:06;13.32;;;9.18;;
37311;SDS011;23197;53.912;9.138;2022-07-21T10:18:36;13.25;;;9.70;;
37311;SDS011;23197;53.912;9.138;2022-07-21T10:21:14;11.32;;;8.65;;
37311;SDS011;23197;53.912;9.138;2022-07-21T10:23:48;10.00;;;7.70;;
37311;SDS011;23197;53.912;9.138;2022-07-21T10:26:17;9.90;;;7.97;;
37311;SDS011;23197;53.912;9.138;2022-07-21T10:28:43;8.85;;;7.07;;
37311;SDS011;23197;53.912;9.138;2022-07-21T10:31:13;8.68;;;6.85;;
37311;SDS011;23197;53.912;9.138;2022-07-21T10:36:56;7.78;;;6.53;;
37311;SDS011;23197;53.912;9.138;2022-07-21T10:41:46;7.32;;;5.57;;
37311;SDS011;23197;53.912;9.138;2022-07-21T10:49:52;6.55;;;4.50;;
37311;SDS011;23197;53.912;9.138;2022-07-21T10:55:19;5.30;;;3.55;;
37311;SDS011;23197;53.912;9.138;2022-07-21T10:58:08;5.63;;;4.00;;
37311;SDS011;23197;53.912;9.138;2022-07-21T11:01:24;5.53;;;4.05;;
37311;SDS011;23197;53.912;9.138;2022-07-21T11:03:40;5.72;;;4.13;;
37311;SDS011;23197;53.912;9.138;2022-07-21T11:06:17;7.05;;;4.55;;
37311;SDS011;23197;53.912;9.138;2022-07-21T11:08:46;5.72;;;4.65;;
37311;SDS011;23197;53.912;9.138;2022-07-21T11:11:25;8.20;;;5.07;;
37311;SDS011;23197;53.912;9.138;2022-07-21T11:24:22;5.72;;;4.30;;
37311;SDS011;23197;53.912;9.138;2022-07-21T11:29:22;7.03;;;5.90;;
37311;SDS011;23197;53.912;9.138;2022-07-21T11:31:48;6.95;;;5.47;;
37311;SDS011;23197;53.912;9.138;2022-07-21T11:34:14;7.05;;;5.13;;
37311;SDS011;23197;53.912;9.138;2022-07-21T11:36:40;7.30;;;5.00;;
37311;SDS011;23197;53.912;9.138;2022-07-21T11:39:07;6.53;;;5.15;;
37311;SDS011;23197;53.912;9.138;2022-07-21T11:41:35;7.55;;;5.00;;
37311;SDS011;23197;53.912;9.138;2022-07-21T11:44:03;7.13;;;5.40;;
37311;SDS011;23197;53.912;9.138;2022-07-21T11:46:43;7.40;;;5.38;;
37311;SDS011;23197;53.912;9.138;2022-07-21T11:49:28;7.90;;;5.80;;
37311;SDS011;23197;53.912;9.138;2022-07-21T11:51:58;6.43;;;5.68;;
37311;SDS011;23197;53.912;9.138;2022-07-21T11:54:27;7.03;;;6.05;;
37311;SDS011;23197;53.912;9.138;2022-07-21T11:56:55;6.50;;;5.45;;
37311;SDS011;23197;53.912;9.138;2022-07-21T11:59:22;5.82;;;4.30;;
37311;SDS011;23197;53.912;9.138;2022-07-21T12:01:52;6.38;;;4.25;;
37311;SDS011;23197;53.912;9.138;2022-07-21T12:04:30;4.47;;;3.53;;
37311;SDS011;23197;53.912;9.138;2022-07-21T12:06:58;5.13;;;3.50;;
37311;SDS011;23197;53.912;9.138;2022-07-21T12:09:25;4.95;;;3.50;;
37311;SDS011;23197;53.912;9.138;2022-07-21T12:11:50;4.57;;;3.53;;
37311;SDS011;23197;53.912;9.138;2022-07-21T12:14:16;4.40;;;3.38;;
37311;SDS011;23197;53.912;9.138;2022-07-21T12:16:51;4.47;;;3.40;;
37311;SDS011;23197;53.912;9.138;2022-07-21T12:19:18;4.60;;;3.42;;
37311;SDS011;23197;53.912;9.138;2022-07-21T12:21:49;4.07;;;3.35;;
37311;SDS011;23197;53.912;9.138;2022-07-21T12:24:16;5.30;;;4.00;;
37311;SDS011;23197;53.912;9.138;2022-07-21T12:26:46;4.25;;;3.35;;
37311;SDS011;23197;53.912;9.138;2022-07-21T12:29:28;5.18;;;3.47;;
37311;SDS011;23197;53.912;9.138;2022-07-21T12:31:54;4.28;;;3.30;;
37311;SDS011;23197;53.912;9.138;2022-07-21T12:34:20;4.20;;;3.60;;
37311;SDS011;23197;53.912;9.138;2022-07-21T12:36:49;4.72;;;3.80;;
37311;SDS011;23197;53.912;9.138;2022-07-21T12:39:22;5.07;;;4.47;;
37311;SDS011;23197;53.912;9.138;2022-07-21T12:42:10;5.35;;;4.60;;
37311;SDS011;23197;53.912;9.138;2022-07-21T12:44:51;6.95;;;5.38;;
37311;SDS011;23197;53.912;9.138;2022-07-21T12:47:18;7.32;;;5.10;;
37311;SDS011;23197;53.912;9.138;2022-07-21T12:52:20;5.53;;;4.68;;
37311;SDS011;23197;53.912;9.138;2022-07-21T12:54:46;6.10;;;5.10;;
37311;SDS011;23197;53.912;9.138;2022-07-21T12:57:11;5.60;;;4.68;;
37311;SDS011;23197;53.912;9.138;2022-07-21T12:59:36;5.85;;;4.80;;
37311;SDS011;23197;53.912;9.138;2022-07-21T13:02:02;6.13;;;5.10;;
37311;SDS011;23197;53.912;9.138;2022-07-21T13:04:27;6.47;;;5.10;;
37311;SDS011;23197;53.912;9.138;2022-07-21T13:06:53;7.28;;;5.25;;
37311;SDS011;23197;53.912;9.138;2022-07-21T13:09:19;6.47;;;5.43;;
37311;SDS011;23197;53.912;9.138;2022-07-21T13:11:45;6.55;;;5.22;;
37311;SDS011;23197;53.912;9.138;2022-07-21T13:14:11;6.22;;;5.03;;
37311;SDS011;23197;53.912;9.138;2022-07-21T13:16:36;6.85;;;5.97;;
37311;SDS011;23197;53.912;9.138;2022-07-21T13:19:02;7.38;;;6.20;;
37311;SDS011;23197;53.912;9.138;2022-07-21T13:21:27;6.43;;;5.00;;
37311;SDS011;23197;53.912;9.138;2022-07-21T13:23:53;7.82;;;5.85;;
37311;SDS011;23197;53.912;9.138;2022-07-21T13:26:18;7.05;;;6.03;;
37311;SDS011;23197;53.912;9.138;2022-07-21T13:28:44;6.65;;;5.80;;
37311;SDS011;23197;53.912;9.138;2022-07-21T13:31:09;7.25;;;6.18;;
37311;SDS011;23197;53.912;9.138;2022-07-21T13:33:35;7.35;;;6.20;;
37311;SDS011;23197;53.912;9.138;2022-07-21T13:36:02;7.13;;;5.80;;
37311;SDS011;23197;53.912;9.138;2022-07-21T13:38:28;7.07;;;5.93;;
37311;SDS011;23197;53.912;9.138;2022-07-21T13:40:53;7.35;;;6.10;;
37311;SDS011;23197;53.912;9.138;2022-07-21T13:43:19;6.68;;;5.90;;
37311;SDS011;23197;53.912;9.138;2022-07-21T13:45:46;7.07;;;5.88;;
37311;SDS011;23197;53.912;9.138;2022-07-21T13:48:12;7.32;;;6.50;;
37311;SDS011;23197;53.912;9.138;2022-07-21T13:50:37;7.60;;;6.45;;
37311;SDS011;23197;53.912;9.138;2022-07-21T13:53:03;9.40;;;6.60;;
37311;SDS011;23197;53.912;9.138;2022-07-21T13:55:28;7.00;;;5.85;;
37311;SDS011;23197;53.912;9.138;2022-07-21T13:57:54;8.13;;;6.82;;
37311;SDS011;23197;53.912;9.138;2022-07-21T14:00:19;8.32;;;6.70;;
37311;SDS011;23197;53.912;9.138;2022-07-21T14:02:44;7.30;;;5.68;;
37311;SDS011;23197;53.912;9.138;2022-07-21T14:05:10;6.70;;;5.90;;
37311;SDS011;23197;53.912;9.138;2022-07-21T14:07:36;6.72;;;5.43;;
37311;SDS011;23197;53.912;9.138;2022-07-21T14:10:02;7.38;;;5.43;;
37311;SDS011;23197;53.912;9.138;2022-07-21T14:12:28;6.80;;;5.80;;
37311;SDS011;23197;53.912;9.138;2022-07-21T14:14:53;7.15;;;5.35;;
37311;SDS011;23197;53.912;9.138;2022-07-21T14:17:19;8.70;;;5.90;;
37311;SDS011;23197;53.912;9.138;2022-07-21T14:19:45;6.80;;;5.72;;
37311;SDS011;23197;53.912;9.138;2022-07-21T14:22:12;7.50;;;6.03;;
37311;SDS011;23197;53.912;9.138;2022-07-21T14:24:39;7.45;;;6.57;;
37311;SDS011;23197;53.912;9.138;2022-07-21T14:27:23;6.57;;;5.70;;
37311;SDS011;23197;53.912;9.138;2022-07-21T14:29:48;9.30;;;6.20;;
37311;SDS011;23197;53.912;9.138;2022-07-21T14:32:14;8.75;;;6.82;;
37311;SDS011;23197;53.912;9.138;2022-07-21T14:34:41;7.75;;;5.93;;
37311;SDS011;23197;53.912;9.138;2022-07-21T14:37:07;7.80;;;6.75;;
37311;SDS011;23197;53.912;9.138;2022-07-21T14:39:32;8.70;;;6.63;;
37311;SDS011;23197;53.912;9.138;2022-07-21T14:41:58;7.68;;;6.55;;
37311;SDS011;23197;53.912;9.138;2022-07-21T14:44:23;8.60;;;6.72;;
37311;SDS011;23197;53.912;9.138;2022-07-21T14:46:49;7.88;;;6.82;;
37311;SDS011;23197;53.912;9.138;2022-07-21T14:49:14;8.73;;;6.72;;
37311;SDS011;23197;53.912;9.138;2022-07-21T14:51:39;7.53;;;6.38;;
37311;SDS011;23197;53.912;9.138;2022-07-21T14:54:05;7.63;;;6.00;;
37311;SDS011;23197;53.912;9.138;2022-07-21T14:56:30;8.98;;;6.55;;
37311;SDS011;23197;53.912;9.138;2022-07-21T14:58:56;8.80;;;7.53;;
37311;SDS011;23197;53.912;9.138;2022-07-21T15:01:23;9.00;;;7.30;;
37311;SDS011;23197;53.912;9.138;2022-07-21T15:03:49;9.02;;;7.95;;
37311;SDS011;23197;53.912;9.138;2022-07-21T15:06:15;9.35;;;7.05;;
37311;SDS011;23197;53.912;9.138;2022-07-21T15:08:40;8.07;;;7.07;;
37311;SDS011;23197;53.912;9.138;2022-07-21T15:11:06;6.78;;;5.75;;
37311;SDS011;23197;53.912;9.138;2022-07-21T15:13:31;7.30;;;6.35;;
37311;SDS011;23197;53.912;9.138;2022-07-21T15:15:57;8.48;;;6.80;;